Time;durP1;ratioP1;P1;durP2;ratioP2;P2;SDS_P1;SDS_P2;PMS_P1;PMS_P2;Temp;Humidity;BMP_temperature;BMP_pressure;BME280_temperature;BME280_humidity;BME280_pressure;Samples;Min_cycle;Max_cycle;Signal;HPM_P1;HPM_P2
2023/12/24 00:01:50;;;;;;;;;;;8.90;99.90;;;;;;4994084;28;20540;-76
2023/12/24 00:04:16;;;;;;;;;;;8.90;99.90;;;;;;4971711;28;19929;-73
2023/12/24 00:06:42;;;;;;;;;;;9.00;99.90;;;;;;5027385;28;19925;-75
2023/12/24 00:09:08;;;;;;;;;;;8.90;99.90;;;;;;4991261;28;20004;-72
2023/12/24 00:11:34;;;;;;;;;;;8.90;99.90;;;;;;5020803;28;19977;-75
2023/12/24 00:14:00;;;;;;;;;;;8.90;99.90;;;;;;4982439;28;19929;-72
2023/12/24 00:16:25;;;;;;;;;;;8.90;99.90;;;;;;4984346;28;19929;-72
2023/12/24 00:18:51;;;;;;;;;;;8.90;99.90;;;;;;4958879;28;20453;-74
2023/12/24 00:21:17;;;;;;;;;;;9.00;99.90;;;;;;4984079;28;19948;-74
2023/12/24 00:23:45;;;;;;;;;;;9.00;99.90;;;;;;4935319;28;21076;-72
2023/12/24 00:26:11;;;;;;;;;;;9.00;99.90;;;;;;4978286;28;19932;-73
2023/12/24 00:28:37;;;;;;;;;;;9.00;99.90;;;;;;4954514;28;19924;-74
2023/12/24 00:31:03;;;;;;;;;;;9.00;99.90;;;;;;4982858;28;19925;-71
2023/12/24 00:33:28;;;;;;;;;;;9.00;99.90;;;;;;4968237;28;19925;-73
2023/12/24 00:35:54;;;;;;;;;;;9.00;99.90;;;;;;4973395;28;20981;-72
2023/12/24 00:38:20;;;;;;;;;;;9.00;99.90;;;;;;4954845;28;19933;-72
2023/12/24 00:40:46;;;;;;;;;;;9.00;99.90;;;;;;4974368;28;20396;-72
2023/12/24 00:43:12;;;;;;;;;;;9.00;99.90;;;;;;4969308;28;19925;-72
2023/12/24 00:45:38;;;;;;;;;;;9.00;99.90;;;;;;4996884;28;20166;-70
2023/12/24 00:48:05;;;;;;;;;;;9.00;99.90;;;;;;4957713;28;19940;-71
2023/12/24 00:50:30;;;;;;;;;;;8.90;99.90;;;;;;4986858;28;21377;-70
2023/12/24 00:52:56;;;;;;;;;;;8.90;99.90;;;;;;4954523;28;20009;-72
2023/12/24 00:55:22;;;;;;;;;;;8.90;99.90;;;;;;4984103;28;19979;-72
2023/12/24 00:57:48;;;;;;;;;;;9.00;99.90;;;;;;4955398;28;19929;-73
2023/12/24 01:00:14;;;;;;;;;;;8.90;99.90;;;;;;4966100;28;19932;-71
2023/12/24 01:02:40;;;;;;;;;;;8.90;99.90;;;;;;4968167;28;19952;-71
2023/12/24 01:05:07;;;;;;;;;;;9.00;99.90;;;;;;4981271;28;19929;-72
2023/12/24 01:07:33;;;;;;;;;;;8.90;99.90;;;;;;4968806;28;19932;-71
2023/12/24 01:09:59;;;;;;;;;;;9.00;99.90;;;;;;4967006;28;19932;-72
2023/12/24 01:12:25;;;;;;;;;;;9.00;99.90;;;;;;4954741;28;19925;-71
2023/12/24 01:14:51;;;;;;;;;;;8.90;99.90;;;;;;4984016;28;19925;-72
2023/12/24 01:17:17;;;;;;;;;;;9.00;99.90;;;;;;5004503;28;19921;-75
2023/12/24 01:19:43;;;;;;;;;;;9.00;99.90;;;;;;4955740;28;19963;-75
2023/12/24 01:22:09;;;;;;;;;;;9.00;99.90;;;;;;5018555;28;19925;-76
2023/12/24 01:24:35;;;;;;;;;;;9.00;99.90;;;;;;4960341;28;19925;-79
2023/12/24 01:27:01;;;;;;;;;;;8.90;99.90;;;;;;4986388;28;19932;-79
2023/12/24 01:29:27;;;;;;;;;;;8.90;99.90;;;;;;4955570;28;19937;-78
2023/12/24 01:31:54;;;;;;;;;;;8.90;99.90;;;;;;5014467;28;19929;-76
2023/12/24 01:34:20;;;;;;;;;;;8.90;99.90;;;;;;4951658;28;19932;-76
2023/12/24 01:36:47;;;;;;;;;;;9.00;99.90;;;;;;4983562;28;20354;-75
2023/12/24 01:39:13;;;;;;;;;;;8.90;99.90;;;;;;4973303;28;19936;-76
2023/12/24 01:41:39;;;;;;;;;;;8.90;99.90;;;;;;5007609;28;20517;-77
2023/12/24 01:44:05;;;;;;;;;;;8.90;99.90;;;;;;4971685;28;19925;-76
2023/12/24 01:46:31;;;;;;;;;;;8.90;99.90;;;;;;4985192;28;19925;-77
2023/12/24 01:48:57;;;;;;;;;;;8.90;99.90;;;;;;4946541;28;19925;-74
2023/12/24 01:51:24;;;;;;;;;;;8.90;99.90;;;;;;4978913;28;20503;-78
2023/12/24 01:53:50;;;;;;;;;;;8.90;99.90;;;;;;4953922;28;19932;-77
2023/12/24 01:56:17;;;;;;;;;;;9.00;99.90;;;;;;4983029;28;19936;-78
2023/12/24 01:58:43;;;;;;;;;;;8.90;99.90;;;;;;4945158;28;20237;-77
2023/12/24 02:01:09;;;;;;;;;;;9.00;99.90;;;;;;4976753;28;20505;-78
2023/12/24 02:03:35;;;;;;;;;;;9.00;99.90;;;;;;4933368;28;19980;-79
2023/12/24 02:06:03;;;;;;;;;;;9.00;99.90;;;;;;4985849;28;19929;-75
2023/12/24 02:08:29;;;;;;;;;;;9.00;99.90;;;;;;4956745;28;19937;-76
2023/12/24 02:10:55;;;;;;;;;;;9.00;99.90;;;;;;4977367;28;19932;-77
2023/12/24 02:13:21;;;;;;;;;;;9.00;99.90;;;;;;4975317;28;20726;-76
2023/12/24 02:15:50;;;;;;;;;;;9.00;99.90;;;;;;4982708;28;19929;-76
2023/12/24 02:18:16;;;;;;;;;;;9.00;99.90;;;;;;4959482;28;19940;-76
2023/12/24 02:20:41;;;;;;;;;;;9.00;99.90;;;;;;4971911;28;20021;-75
2023/12/24 02:23:07;;;;;;;;;;;9.00;99.90;;;;;;4950860;28;19925;-74
2023/12/24 02:25:34;;;;;;;;;;;9.10;99.90;;;;;;4984005;28;19952;-76
2023/12/24 02:28:19;;;;;;;;;;;9.10;99.90;;;;;;4955940;28;19940;-74
2023/12/24 02:30:50;;;;;;;;;;;9.10;99.90;;;;;;4979318;28;20491;-75
2023/12/24 02:33:17;;;;;;;;;;;9.10;99.90;;;;;;4965385;28;19963;-73
2023/12/24 02:35:43;;;;;;;;;;;9.00;99.90;;;;;;4979373;28;20112;-74
2023/12/24 02:38:09;;;;;;;;;;;9.10;99.90;;;;;;4954487;28;19940;-73
2023/12/24 02:40:35;;;;;;;;;;;9.10;99.90;;;;;;5017124;28;20250;-72
2023/12/24 02:43:01;;;;;;;;;;;9.10;99.90;;;;;;4990906;28;20030;-72
2023/12/24 02:45:27;;;;;;;;;;;9.10;99.90;;;;;;4977180;28;20771;-71
2023/12/24 02:47:53;;;;;;;;;;;9.10;99.90;;;;;;4979609;28;19931;-73
2023/12/24 02:50:19;;;;;;;;;;;9.10;99.90;;;;;;4987442;28;20082;-73
2023/12/24 02:52:46;;;;;;;;;;;9.10;99.90;;;;;;4958331;28;19925;-75
2023/12/24 02:55:12;;;;;;;;;;;9.10;99.90;;;;;;4985516;28;19952;-73
2023/12/24 02:57:38;;;;;;;;;;;9.10;99.90;;;;;;4964799;28;21159;-75
2023/12/24 03:00:08;;;;;;;;;;;9.10;99.90;;;;;;4972010;28;20054;-77
2023/12/24 03:02:34;;;;;;;;;;;9.10;99.90;;;;;;4970697;28;19932;-74
2023/12/24 03:05:01;;;;;;;;;;;9.20;99.90;;;;;;5007498;28;19936;-75
2023/12/24 03:07:27;;;;;;;;;;;9.20;99.90;;;;;;4931818;28;19928;-75
2023/12/24 03:09:53;;;;;;;;;;;9.20;99.90;;;;;;4956515;28;19925;-78
2023/12/24 03:12:19;;;;;;;;;;;9.10;99.90;;;;;;4964391;28;19932;-77
2023/12/24 03:14:45;;;;;;;;;;;9.10;99.90;;;;;;4961303;28;20186;-74
2023/12/24 03:17:11;;;;;;;;;;;9.10;99.90;;;;;;4982979;28;20124;-74
2023/12/24 03:19:37;;;;;;;;;;;9.20;99.90;;;;;;4959334;28;19930;-74
2023/12/24 03:22:03;;;;;;;;;;;9.20;99.90;;;;;;4981362;28;21601;-73
2023/12/24 03:24:29;;;;;;;;;;;9.20;99.90;;;;;;4947585;28;19936;-73
2023/12/24 03:26:55;;;;;;;;;;;9.20;99.90;;;;;;4998474;28;19964;-77
2023/12/24 03:29:21;;;;;;;;;;;9.20;99.90;;;;;;4933650;28;19996;-72
2023/12/24 03:31:47;;;;;;;;;;;9.20;99.90;;;;;;4962484;28;20484;-72
2023/12/24 03:34:14;;;;;;;;;;;9.10;99.90;;;;;;4948954;28;19936;-72
2023/12/24 03:36:40;;;;;;;;;;;9.20;99.90;;;;;;4977930;28;19924;-73
2023/12/24 03:39:06;;;;;;;;;;;9.20;99.90;;;;;;4921954;28;20015;-74
2023/12/24 03:41:32;;;;;;;;;;;9.20;99.90;;;;;;4979363;28;20081;-73
2023/12/24 03:43:58;;;;;;;;;;;9.10;99.90;;;;;;4949975;28;19925;-72
2023/12/24 03:46:24;;;;;;;;;;;9.20;99.90;;;;;;4972895;28;20484;-72
2023/12/24 03:48:50;;;;;;;;;;;9.20;99.90;;;;;;4966878;28;20424;-74
2023/12/24 03:51:18;;;;;;;;;;;9.20;99.90;;;;;;4974370;28;19932;-74
2023/12/24 03:53:44;;;;;;;;;;;9.20;99.90;;;;;;4941281;28;20425;-72
2023/12/24 03:56:10;;;;;;;;;;;9.20;99.90;;;;;;4968570;28;19925;-75
2023/12/24 03:58:38;;;;;;;;;;;9.20;99.90;;;;;;4944308;28;19929;-74
2023/12/24 04:01:08;;;;;;;;;;;9.20;99.90;;;;;;4960066;28;19925;-72
2023/12/24 04:03:34;;;;;;;;;;;9.20;99.90;;;;;;4963029;28;19925;-75
2023/12/24 04:06:01;;;;;;;;;;;9.20;99.90;;;;;;4989623;28;19932;-73
2023/12/24 04:08:27;;;;;;;;;;;9.30;99.90;;;;;;4948471;28;20672;-73
2023/12/24 04:10:53;;;;;;;;;;;9.30;99.90;;;;;;4976366;28;19925;-74
2023/12/24 04:13:19;;;;;;;;;;;9.20;99.90;;;;;;4947632;28;19992;-73
2023/12/24 04:15:44;;;;;;;;;;;9.30;99.90;;;;;;4974275;28;19925;-73
2023/12/24 04:18:10;;;;;;;;;;;9.30;99.90;;;;;;4968612;28;19946;-73
2023/12/24 04:20:38;;;;;;;;;;;9.30;99.90;;;;;;4968622;28;19925;-72
2023/12/24 04:23:04;;;;;;;;;;;9.30;99.90;;;;;;4951074;28;19970;-72
2023/12/24 04:25:30;;;;;;;;;;;9.30;99.90;;;;;;4967933;28;19925;-71
2023/12/24 04:27:56;;;;;;;;;;;9.30;99.90;;;;;;4953197;28;20586;-73
2023/12/24 04:30:22;;;;;;;;;;;9.30;99.90;;;;;;4960221;28;20357;-73
2023/12/24 04:32:48;;;;;;;;;;;9.30;99.90;;;;;;4952831;28;19935;-72
2023/12/24 04:35:14;;;;;;;;;;;9.30;99.90;;;;;;4970247;28;20546;-75
2023/12/24 04:37:39;;;;;;;;;;;9.40;99.90;;;;;;4981114;28;19937;-71
2023/12/24 04:40:06;;;;;;;;;;;9.30;99.90;;;;;;4985325;28;19932;-72
2023/12/24 04:42:32;;;;;;;;;;;9.30;99.90;;;;;;4948319;28;19925;-73
2023/12/24 04:44:58;;;;;;;;;;;9.30;99.90;;;;;;4980078;28;20470;-73
2023/12/24 04:47:24;;;;;;;;;;;9.30;99.90;;;;;;4951936;28;20757;-73
2023/12/24 04:49:50;;;;;;;;;;;9.30;99.90;;;;;;4986683;28;19925;-72
2023/12/24 04:52:16;;;;;;;;;;;9.30;99.90;;;;;;4974657;28;19932;-73
2023/12/24 04:54:42;;;;;;;;;;;9.30;99.90;;;;;;4946545;28;19963;-72
2023/12/24 04:57:07;;;;;;;;;;;9.40;99.90;;;;;;4979661;28;19935;-72
2023/12/24 04:59:33;;;;;;;;;;;9.30;99.90;;;;;;4942957;28;19936;-75
2023/12/24 05:01:59;;;;;;;;;;;9.40;99.90;;;;;;4975120;28;19925;-76
2023/12/24 05:04:27;;;;;;;;;;;9.40;99.90;;;;;;4942378;28;19925;-73
2023/12/24 05:06:53;;;;;;;;;;;9.40;99.90;;;;;;4990425;28;19929;-75
2023/12/24 05:09:19;;;;;;;;;;;9.40;99.90;;;;;;4940731;28;19952;-74
2023/12/24 05:11:45;;;;;;;;;;;9.40;99.90;;;;;;4958507;28;19925;-73
2023/12/24 05:14:11;;;;;;;;;;;9.40;99.90;;;;;;4978012;28;20501;-73
2023/12/24 05:16:37;;;;;;;;;;;9.40;99.90;;;;;;4979204;28;19925;-74
2023/12/24 05:19:03;;;;;;;;;;;9.40;99.90;;;;;;4947378;28;20486;-75
2023/12/24 05:21:29;;;;;;;;;;;9.50;99.90;;;;;;4979996;28;20027;-73
2023/12/24 05:23:56;;;;;;;;;;;9.50;99.90;;;;;;4940019;28;19925;-75
2023/12/24 05:26:24;;;;;;;;;;;9.50;99.90;;;;;;4977503;28;19947;-74
2023/12/24 05:28:53;;;;;;;;;;;9.60;99.90;;;;;;4952752;28;19936;-74
2023/12/24 05:31:19;;;;;;;;;;;9.50;99.90;;;;;;4976091;28;19925;-77
2023/12/24 05:33:45;;;;;;;;;;;9.60;99.90;;;;;;4961939;28;20724;-74
2023/12/24 05:36:14;;;;;;;;;;;9.60;99.90;;;;;;5007694;28;19929;-73
2023/12/24 05:38:40;;;;;;;;;;;9.60;99.90;;;;;;4971596;28;19932;-73
2023/12/24 05:41:09;;;;;;;;;;;9.60;99.90;;;;;;4996495;28;20905;-74
2023/12/24 05:43:36;;;;;;;;;;;9.70;99.90;;;;;;4958162;28;20834;-73
2023/12/24 05:46:02;;;;;;;;;;;9.70;99.90;;;;;;4986519;28;20479;-76
2023/12/24 05:48:28;;;;;;;;;;;9.70;99.90;;;;;;4964643;28;20593;-73
2023/12/24 05:50:54;;;;;;;;;;;9.70;99.90;;;;;;4971567;28;19931;-74
2023/12/24 05:53:20;;;;;;;;;;;9.70;99.90;;;;;;4950503;28;20007;-74
2023/12/24 05:55:46;;;;;;;;;;;9.70;99.90;;;;;;4970537;28;19932;-74
2023/12/24 05:58:12;;;;;;;;;;;9.80;99.90;;;;;;4950437;28;19937;-75
2023/12/24 06:00:38;;;;;;;;;;;9.80;99.90;;;;;;4968886;28;19940;-74
2023/12/24 06:03:04;;;;;;;;;;;9.80;99.90;;;;;;4953560;28;20423;-73
2023/12/24 06:05:29;;;;;;;;;;;9.80;99.90;;;;;;4977736;28;20027;-74
2023/12/24 06:07:55;;;;;;;;;;;9.80;99.90;;;;;;4972977;28;19932;-72
2023/12/24 06:10:21;;;;;;;;;;;9.80;99.90;;;;;;4988961;28;20213;-72
2023/12/24 06:12:51;;;;;;;;;;;9.80;99.90;;;;;;4952287;28;19932;-72
2023/12/24 06:15:17;;;;;;;;;;;9.80;99.90;;;;;;4966713;28;21115;-72
2023/12/24 06:17:43;;;;;;;;;;;9.80;99.90;;;;;;4956212;28;19935;-73
2023/12/24 06:20:09;;;;;;;;;;;9.90;99.90;;;;;;4983888;28;19925;-71
2023/12/24 06:22:35;;;;;;;;;;;9.90;99.90;;;;;;4953850;28;20715;-73
2023/12/24 06:25:02;;;;;;;;;;;9.90;99.90;;;;;;5007347;28;19921;-76
2023/12/24 06:27:28;;;;;;;;;;;9.90;99.90;;;;;;4983078;28;20006;-74
2023/12/24 06:29:54;;;;;;;;;;;10.00;99.90;;;;;;4963984;28;20241;-74
2023/12/24 06:32:20;;;;;;;;;;;10.00;99.90;;;;;;4964680;28;19925;-71
2023/12/24 06:34:46;;;;;;;;;;;10.00;99.90;;;;;;4977281;28;20163;-71
2023/12/24 06:37:11;;;;;;;;;;;10.00;99.90;;;;;;4979706;28;20024;-73
2023/12/24 06:39:38;;;;;;;;;;;10.00;99.90;;;;;;4949696;28;19936;-72
2023/12/24 06:42:04;;;;;;;;;;;10.00;99.90;;;;;;4977316;28;19951;-71
2023/12/24 06:44:29;;;;;;;;;;;10.00;99.90;;;;;;4948523;28;20973;-72
2023/12/24 06:46:55;;;;;;;;;;;10.00;99.90;;;;;;4978377;28;20499;-72
2023/12/24 06:49:21;;;;;;;;;;;10.00;99.90;;;;;;4948277;28;19936;-72
2023/12/24 06:51:47;;;;;;;;;;;10.00;99.90;;;;;;4977437;28;20455;-71
2023/12/24 06:54:13;;;;;;;;;;;10.10;99.90;;;;;;4954599;28;20006;-71
2023/12/24 06:56:39;;;;;;;;;;;10.00;99.90;;;;;;4980470;28;20530;-71
2023/12/24 06:59:05;;;;;;;;;;;10.10;99.90;;;;;;4954416;28;19929;-71
2023/12/24 07:01:31;;;;;;;;;;;10.10;99.90;;;;;;4983002;28;19933;-71
2023/12/24 07:03:57;;;;;;;;;;;10.10;99.90;;;;;;4978375;28;19931;-71
2023/12/24 07:06:23;;;;;;;;;;;10.10;99.90;;;;;;4985684;28;19925;-72
2023/12/24 07:08:49;;;;;;;;;;;10.10;99.90;;;;;;4955701;28;20506;-70
2023/12/24 07:11:15;;;;;;;;;;;10.10;99.90;;;;;;4983941;28;19931;-72
2023/12/24 07:13:41;;;;;;;;;;;10.20;99.90;;;;;;4975086;28;19925;-70
2023/12/24 07:16:08;;;;;;;;;;;10.20;99.90;;;;;;4989380;28;19929;-71
2023/12/24 07:18:34;;;;;;;;;;;10.20;99.90;;;;;;4957260;28;19940;-71
2023/12/24 07:20:59;;;;;;;;;;;10.20;99.90;;;;;;4985698;28;20626;-70
2023/12/24 07:23:25;;;;;;;;;;;10.20;99.90;;;;;;4967077;28;19924;-71
2023/12/24 07:25:51;;;;;;;;;;;10.20;99.90;;;;;;4994493;28;20383;-70
2023/12/24 07:28:17;;;;;;;;;;;10.20;99.90;;;;;;4953381;28;19975;-70
2023/12/24 07:30:43;;;;;;;;;;;10.30;99.90;;;;;;4969741;28;19944;-70
2023/12/24 07:33:09;;;;;;;;;;;10.30;99.90;;;;;;4966506;28;21099;-70
2023/12/24 07:35:35;;;;;;;;;;;10.30;99.90;;;;;;4981515;28;19964;-71
2023/12/24 07:38:01;;;;;;;;;;;10.30;99.90;;;;;;4969542;28;19936;-71
2023/12/24 07:40:27;;;;;;;;;;;10.30;99.90;;;;;;4956228;28;19925;-70
2023/12/24 07:42:52;;;;;;;;;;;10.30;99.90;;;;;;4977149;28;20397;-70
2023/12/24 07:45:19;;;;;;;;;;;10.30;99.90;;;;;;4965391;28;19924;-70
2023/12/24 07:47:45;;;;;;;;;;;10.30;99.90;;;;;;4951239;28;19928;-70
2023/12/24 07:50:11;;;;;;;;;;;10.30;99.90;;;;;;4972495;28;19968;-71
2023/12/24 07:52:37;;;;;;;;;;;10.30;99.90;;;;;;4951644;28;19937;-72
2023/12/24 07:55:03;;;;;;;;;;;10.40;99.90;;;;;;4984195;28;19925;-71
2023/12/24 07:57:29;;;;;;;;;;;10.40;99.90;;;;;;4951893;28;21061;-71
2023/12/24 07:59:55;;;;;;;;;;;10.40;99.90;;;;;;4978611;28;19929;-71
2023/12/24 08:02:21;;;;;;;;;;;10.30;99.90;;;;;;4960661;28;19925;-72
2023/12/24 08:04:47;;;;;;;;;;;10.40;99.90;;;;;;4988788;28;19931;-72
2023/12/24 08:07:13;;;;;;;;;;;10.40;99.90;;;;;;4977798;28;19924;-71
2023/12/24 08:09:39;;;;;;;;;;;10.40;99.90;;;;;;4943251;28;20441;-72
2023/12/24 08:12:05;;;;;;;;;;;10.40;99.90;;;;;;4978180;28;19984;-72
2023/12/24 08:14:31;;;;;;;;;;;10.50;99.90;;;;;;4937824;28;20675;-71
2023/12/24 08:16:57;;;;;;;;;;;10.50;99.90;;;;;;4976796;28;19936;-70
2023/12/24 08:19:23;;;;;;;;;;;10.50;99.90;;;;;;4948846;28;19933;-71
2023/12/24 08:21:49;;;;;;;;;;;10.50;99.90;;;;;;4976551;28;19925;-71
2023/12/24 08:24:15;;;;;;;;;;;10.50;99.90;;;;;;4979975;28;19936;-70
2023/12/24 08:26:41;;;;;;;;;;;10.60;99.90;;;;;;4974835;28;20434;-71
2023/12/24 08:29:07;;;;;;;;;;;10.50;99.90;;;;;;4952029;28;19955;-70
2023/12/24 08:31:33;;;;;;;;;;;10.50;99.90;;;;;;4980287;28;20410;-70
2023/12/24 08:33:59;;;;;;;;;;;10.50;99.90;;;;;;4961717;28;19925;-70
2023/12/24 08:36:25;;;;;;;;;;;10.60;99.90;;;;;;4971497;28;19929;-70
2023/12/24 08:38:50;;;;;;;;;;;10.60;99.90;;;;;;4954322;28;19929;-69
2023/12/24 08:41:16;;;;;;;;;;;10.50;99.90;;;;;;4982138;28;19925;-69
2023/12/24 08:43:42;;;;;;;;;;;10.50;99.90;;;;;;4946264;28;20047;-70
2023/12/24 08:46:08;;;;;;;;;;;10.50;99.90;;;;;;4967955;28;19936;-70
2023/12/24 08:48:34;;;;;;;;;;;10.50;99.90;;;;;;4946907;28;19929;-69
2023/12/24 08:51:01;;;;;;;;;;;10.60;99.90;;;;;;4970066;28;19925;-67
2023/12/24 08:53:27;;;;;;;;;;;10.60;99.90;;;;;;4957406;28;19996;-68
2023/12/24 08:55:53;;;;;;;;;;;10.60;99.90;;;;;;4984679;28;20067;-68
2023/12/24 08:58:19;;;;;;;;;;;10.60;99.90;;;;;;4952505;28;19929;-68
2023/12/24 09:00:45;;;;;;;;;;;10.60;99.90;;;;;;4978906;28;20591;-67
2023/12/24 09:03:11;;;;;;;;;;;10.50;99.90;;;;;;4948745;28;20673;-67
2023/12/24 09:05:37;;;;;;;;;;;10.60;99.90;;;;;;4963603;28;19941;-67
2023/12/24 09:08:03;;;;;;;;;;;10.60;99.90;;;;;;4976900;28;19933;-67
2023/12/24 09:10:29;;;;;;;;;;;10.60;99.90;;;;;;4961380;28;19929;-67
2023/12/24 09:12:55;;;;;;;;;;;10.60;99.90;;;;;;4951702;28;19925;-67
2023/12/24 09:15:21;;;;;;;;;;;10.60;99.90;;;;;;4973961;28;20791;-66
2023/12/24 09:17:47;;;;;;;;;;;10.60;99.90;;;;;;4953872;28;19932;-67
2023/12/24 09:20:13;;;;;;;;;;;10.60;99.90;;;;;;4976621;28;19929;-67
2023/12/24 09:22:38;;;;;;;;;;;10.70;99.90;;;;;;4956594;28;20168;-67
2023/12/24 09:25:05;;;;;;;;;;;10.70;99.90;;;;;;4992109;28;19925;-67
2023/12/24 09:27:30;;;;;;;;;;;10.70;99.90;;;;;;4955050;28;20594;-67
2023/12/24 09:29:56;;;;;;;;;;;10.70;99.90;;;;;;5009770;28;19963;-67
2023/12/24 09:32:22;;;;;;;;;;;10.70;99.90;;;;;;4949991;28;19925;-67
2023/12/24 09:34:48;;;;;;;;;;;10.70;99.90;;;;;;4987716;28;20033;-67
2023/12/24 09:37:14;;;;;;;;;;;10.70;99.90;;;;;;4978675;28;19925;-68
2023/12/24 09:39:40;;;;;;;;;;;10.70;99.90;;;;;;4980629;28;19956;-67
2023/12/24 09:42:06;;;;;;;;;;;10.70;99.90;;;;;;4978239;28;19924;-68
2023/12/24 09:44:34;;;;;;;;;;;10.70;99.90;;;;;;4957770;28;19931;-68
2023/12/24 09:46:59;;;;;;;;;;;10.80;99.90;;;;;;4982928;28;19932;-68
2023/12/24 09:49:25;;;;;;;;;;;10.80;99.90;;;;;;4965700;28;19928;-68
2023/12/24 09:51:53;;;;;;;;;;;10.80;99.90;;;;;;4979407;28;19925;-68
2023/12/24 09:54:20;;;;;;;;;;;10.80;99.90;;;;;;4952907;28;19925;-69
2023/12/24 09:56:46;;;;;;;;;;;10.80;99.90;;;;;;5023726;28;19925;-69
2023/12/24 09:59:12;;;;;;;;;;;10.90;99.90;;;;;;5023725;28;20007;-68
2023/12/24 10:01:42;;;;;;;;;;;10.90;99.90;;;;;;5028638;28;19929;-68
2023/12/24 10:04:07;;;;;;;;;;;10.90;99.90;;;;;;5017593;28;19976;-68
2023/12/24 10:06:50;;;;;;;;;;;10.90;99.90;;;;;;5023567;28;19969;-67
2023/12/24 10:09:15;;;;;;;;;;;11.00;99.90;;;;;;5006983;28;19932;-67
2023/12/24 10:11:41;;;;;;;;;;;11.00;99.90;;;;;;5021576;28;19924;-68
2023/12/24 10:14:07;;;;;;;;;;;11.00;99.90;;;;;;4996472;28;19925;-68
2023/12/24 10:16:46;;;;;;;;;;;11.00;99.90;;;;;;5026197;28;19931;-68
2023/12/24 10:19:22;;;;;;;;;;;11.10;99.90;;;;;;5007154;28;19939;-69
2023/12/24 10:21:57;;;;;;;;;;;11.10;99.90;;;;;;5023808;28;19932;-68
2023/12/24 10:24:23;;;;;;;;;;;11.10;99.90;;;;;;4992016;28;20072;-68
2023/12/24 10:26:49;;;;;;;;;;;11.10;99.90;;;;;;5023980;28;19940;-69
2023/12/24 10:29:20;;;;;;;;;;;11.10;99.90;;;;;;5008473;28;19924;-69
2023/12/24 10:31:49;;;;;;;;;;;11.10;99.90;;;;;;5017749;28;19928;-69
2023/12/24 10:34:17;;;;;;;;;;;11.10;99.90;;;;;;4975703;28;20001;-69
2023/12/24 10:36:43;;;;;;;;;;;11.20;99.90;;;;;;5036311;28;19925;-69
2023/12/24 10:39:13;;;;;;;;;;;11.20;99.90;;;;;;4954863;28;19933;-67
2023/12/24 10:41:39;;;;;;;;;;;11.20;99.90;;;;;;4978533;28;19929;-68
2023/12/24 10:44:05;;;;;;;;;;;11.20;99.90;;;;;;4956504;28;19932;-68
2023/12/24 10:46:31;;;;;;;;;;;11.30;99.90;;;;;;4975074;28;19925;-67
2023/12/24 10:48:56;;;;;;;;;;;11.30;99.90;;;;;;4974042;28;19954;-68
2023/12/24 10:51:22;;;;;;;;;;;11.40;99.90;;;;;;4976644;28;20984;-67
2023/12/24 10:53:49;;;;;;;;;;;11.30;99.90;;;;;;4967604;28;19932;-67
2023/12/24 10:56:17;;;;;;;;;;;11.40;99.90;;;;;;4989029;28;19936;-67
2023/12/24 10:58:55;;;;;;;;;;;11.40;99.90;;;;;;4945704;28;19933;-68
2023/12/24 11:01:21;;;;;;;;;;;11.40;99.90;;;;;;4976067;28;19925;-68
2023/12/24 11:03:48;;;;;;;;;;;11.40;99.90;;;;;;4946335;28;20009;-68
2023/12/24 11:06:33;;;;;;;;;;;11.50;99.90;;;;;;4967365;28;19925;-68
2023/12/24 11:08:59;;;;;;;;;;;11.50;99.90;;;;;;4946612;28;21036;-69
2023/12/24 11:11:25;;;;;;;;;;;11.50;99.90;;;;;;4977898;28;19929;-68
2023/12/24 11:13:51;;;;;;;;;;;11.50;99.90;;;;;;4947066;28;19925;-68
2023/12/24 11:16:35;;;;;;;;;;;11.60;99.90;;;;;;4967626;28;19925;-67
2023/12/24 11:19:01;;;;;;;;;;;11.60;99.90;;;;;;4944392;28;19940;-67
2023/12/24 11:21:27;;;;;;;;;;;11.60;99.90;;;;;;4972009;28;20430;-67
2023/12/24 11:24:09;;;;;;;;;;;11.60;99.90;;;;;;4943992;28;19955;-67
2023/12/24 11:26:34;;;;;;;;;;;11.60;99.90;;;;;;4958264;28;20570;-67
2023/12/24 11:29:02;;;;;;;;;;;11.50;99.90;;;;;;4954395;28;20134;-68
2023/12/24 11:31:28;;;;;;;;;;;11.50;99.90;;;;;;4977101;28;20400;-68
2023/12/24 11:33:55;;;;;;;;;;;11.50;99.90;;;;;;4948145;28;19972;-67
2023/12/24 11:36:22;;;;;;;;;;;11.60;99.90;;;;;;4971521;28;19969;-68
2023/12/24 11:38:52;;;;;;;;;;;11.60;99.90;;;;;;4955355;28;20520;-67
2023/12/24 11:41:19;;;;;;;;;;;11.60;99.90;;;;;;4979069;28;20005;-67
2023/12/24 11:43:58;;;;;;;;;;;11.60;99.90;;;;;;4945831;28;19932;-67
2023/12/24 11:46:24;;;;;;;;;;;11.70;99.90;;;;;;4973371;28;19925;-68
2023/12/24 11:48:52;;;;;;;;;;;11.60;99.90;;;;;;4932415;28;19932;-67
2023/12/24 11:51:22;;;;;;;;;;;11.70;99.90;;;;;;4986163;28;19932;-68
2023/12/24 11:53:47;;;;;;;;;;;11.60;99.90;;;;;;4972130;28;19924;-68
2023/12/24 11:56:15;;;;;;;;;;;11.70;99.90;;;;;;4980974;28;21023;-67
2023/12/24 11:59:01;;;;;;;;;;;11.60;99.90;;;;;;4949819;28;20802;-67
2023/12/24 12:01:31;;;;;;;;;;;11.70;99.90;;;;;;4972369;28;19932;-67
2023/12/24 12:03:58;;;;;;;;;;;11.70;99.90;;;;;;4940113;28;19931;-67
2023/12/24 12:06:25;;;;;;;;;;;11.70;99.90;;;;;;4986165;28;19929;-67
2023/12/24 12:08:51;;;;;;;;;;;11.70;99.90;;;;;;4938982;28;19925;-67
2023/12/24 12:11:17;;;;;;;;;;;11.70;99.90;;;;;;4972393;28;19956;-67
2023/12/24 12:13:43;;;;;;;;;;;11.70;99.90;;;;;;4939408;28;21143;-67
2023/12/24 12:16:09;;;;;;;;;;;11.70;99.90;;;;;;4971425;28;19929;-66
2023/12/24 12:18:35;;;;;;;;;;;11.70;99.90;;;;;;4941469;28;19925;-67
2023/12/24 12:21:01;;;;;;;;;;;11.70;99.90;;;;;;4972337;28;19932;-68
2023/12/24 12:23:27;;;;;;;;;;;11.70;99.90;;;;;;4943642;28;19925;-67
2023/12/24 12:25:53;;;;;;;;;;;11.70;99.90;;;;;;4966215;28;19929;-67
2023/12/24 12:28:19;;;;;;;;;;;11.70;99.90;;;;;;4951014;28;21043;-71
2023/12/24 12:30:45;;;;;;;;;;;11.70;99.90;;;;;;4980375;28;19936;-67
2023/12/24 12:33:12;;;;;;;;;;;11.70;99.90;;;;;;4956868;28;21195;-68
2023/12/24 12:35:38;;;;;;;;;;;11.70;99.90;;;;;;4986596;28;20284;-67
2023/12/24 12:38:04;;;;;;;;;;;11.60;99.90;;;;;;4953426;28;19924;-67
2023/12/24 12:40:30;;;;;;;;;;;11.60;99.90;;;;;;4985236;28;20390;-68
2023/12/24 12:42:56;;;;;;;;;;;11.60;99.90;;;;;;4959902;28;20016;-68
2023/12/24 12:45:22;;;;;;;;;;;11.60;99.90;;;;;;4997873;28;19932;-68
2023/12/24 12:47:48;;;;;;;;;;;11.70;99.90;;;;;;4950188;28;19950;-67
2023/12/24 12:50:14;;;;;;;;;;;11.70;99.90;;;;;;4961304;28;19969;-67
2023/12/24 12:52:40;;;;;;;;;;;11.60;99.90;;;;;;4980179;28;20338;-67
2023/12/24 12:55:07;;;;;;;;;;;11.70;99.90;;;;;;4981272;28;20889;-67
2023/12/24 12:57:34;;;;;;;;;;;11.70;99.90;;;;;;4950592;28;19925;-67
2023/12/24 13:00:08;;;;;;;;;;;11.70;99.90;;;;;;4981423;28;19933;-67
2023/12/24 13:02:38;;;;;;;;;;;11.70;99.90;;;;;;4953408;28;20620;-67
2023/12/24 13:05:05;;;;;;;;;;;11.70;99.90;;;;;;4980742;28;19925;-69
2023/12/24 13:07:31;;;;;;;;;;;11.70;99.90;;;;;;4951467;28;20290;-69
2023/12/24 13:09:57;;;;;;;;;;;11.80;99.90;;;;;;4999160;28;19932;-67
2023/12/24 13:12:23;;;;;;;;;;;11.70;99.90;;;;;;4951520;28;19925;-69
2023/12/24 13:14:55;;;;;;;;;;;11.80;99.90;;;;;;4974380;28;20819;-70
2023/12/24 13:17:24;;;;;;;;;;;11.80;99.90;;;;;;4959206;28;19932;-68
2023/12/24 13:19:53;;;;;;;;;;;11.80;99.90;;;;;;4981432;28;19940;-68
2023/12/24 13:22:21;;;;;;;;;;;11.80;99.90;;;;;;4988916;28;19949;-68
2023/12/24 13:24:48;;;;;;;;;;;11.80;99.90;;;;;;4968475;28;19936;-67
2023/12/24 13:27:17;;;;;;;;;;;11.80;99.90;;;;;;4991889;28;19925;-68
2023/12/24 13:29:43;;;;;;;;;;;11.80;99.90;;;;;;4950187;28;20560;-67
2023/12/24 13:32:10;;;;;;;;;;;11.70;99.90;;;;;;4978149;28;19936;-67
2023/12/24 13:34:36;;;;;;;;;;;11.70;99.90;;;;;;4934857;28;19932;-69
2023/12/24 13:37:02;;;;;;;;;;;11.70;99.90;;;;;;4977228;28;20546;-68
2023/12/24 13:39:28;;;;;;;;;;;11.70;99.90;;;;;;4937283;28;19933;-68
2023/12/24 13:41:54;;;;;;;;;;;11.70;99.90;;;;;;4981603;28;19925;-68
2023/12/24 13:44:20;;;;;;;;;;;11.70;99.90;;;;;;4955736;28;20210;-69
2023/12/24 13:46:46;;;;;;;;;;;11.70;99.90;;;;;;4994192;28;19940;-70
2023/12/24 13:49:12;;;;;;;;;;;11.60;99.90;;;;;;4941773;28;19928;-72
2023/12/24 13:51:38;;;;;;;;;;;11.60;99.90;;;;;;4980980;28;19925;-72
2023/12/24 13:54:04;;;;;;;;;;;11.60;99.90;;;;;;4945010;28;19925;-73
2023/12/24 13:56:31;;;;;;;;;;;11.60;99.90;;;;;;4978488;28;19928;-74
2023/12/24 13:58:57;;;;;;;;;;;11.60;99.90;;;;;;4952353;28;19925;-76
2023/12/24 14:01:23;;;;;;;;;;;11.60;99.90;;;;;;4979686;28;19929;-77
2023/12/24 14:03:49;;;;;;;;;;;11.60;99.90;;;;;;4974935;28;20613;-76
2023/12/24 14:06:15;;;;;;;;;;;11.60;99.90;;;;;;4986808;28;19936;-74
2023/12/24 14:08:41;;;;;;;;;;;11.60;99.90;;;;;;4968751;28;19925;-77
2023/12/24 14:11:08;;;;;;;;;;;11.60;99.90;;;;;;4984101;28;19929;-75
2023/12/24 14:13:34;;;;;;;;;;;11.50;99.90;;;;;;4958957;28;19995;-75
2023/12/24 14:16:00;;;;;;;;;;;11.60;99.90;;;;;;4981953;28;20538;-73
2023/12/24 14:18:26;;;;;;;;;;;11.50;99.90;;;;;;4966690;28;20051;-74
2023/12/24 14:20:52;;;;;;;;;;;11.50;99.90;;;;;;4987144;28;19929;-74